Time;durP1;ratioP1;P1;durP2;ratioP2;P2;SDS_P1;SDS_P2;PMS_P1;PMS_P2;Temp;Humidity;BMP_temperature;BMP_pressure;BME280_temperature;BME280_humidity;BME280_pressure;Samples;Min_cycle;Max_cycle;Signal;HPM_P1;HPM_P2
2023/03/08 00:00:23;;;;;;;20.50;11.73;;;5.40;99.90;;;;;;5022481;28;20559;-45
2023/03/08 00:02:52;;;;;;;19.73;11.33;;;5.40;99.90;;;;;;5018153;28;20259;-45
2023/03/08 00:05:19;;;;;;;16.37;12.57;;;5.50;99.90;;;;;;5015650;28;20199;-47
2023/03/08 00:07:51;;;;;;;18.83;11.73;;;5.50;99.90;;;;;;5034351;28;20748;-47
2023/03/08 00:10:18;;;;;;;18.23;11.23;;;5.50;99.90;;;;;;5023355;28;20289;-46
2023/03/08 00:12:45;;;;;;;17.33;10.90;;;5.50;99.90;;;;;;5016293;28;20201;-47
2023/03/08 00:15:12;;;;;;;17.33;12.00;;;5.40;99.90;;;;;;5014385;28;20744;-48
2023/03/08 00:17:40;;;;;;;17.10;12.13;;;5.30;99.90;;;;;;5016560;28;20224;-46
2023/03/08 00:20:09;;;;;;;16.23;11.47;;;5.30;99.90;;;;;;5015984;28;20191;-47
2023/03/08 00:22:36;;;;;;;19.23;13.97;;;5.20;99.90;;;;;;5023087;28;20208;-46
2023/03/08 00:25:06;;;;;;;17.90;10.93;;;5.20;99.90;;;;;;5025585;28;20267;-46
2023/03/08 00:27:33;;;;;;;17.87;12.67;;;5.20;99.90;;;;;;5024795;28;20219;-46
2023/03/08 00:30:00;;;;;;;18.63;12.50;;;5.20;99.90;;;;;;5024339;28;20201;-47
2023/03/08 00:32:27;;;;;;;28.67;17.40;;;5.20;99.90;;;;;;5022271;28;20616;-47
2023/03/08 00:34:54;;;;;;;19.47;14.07;;;5.20;99.90;;;;;;5027076;28;20200;-48
2023/03/08 00:37:21;;;;;;;17.27;12.33;;;5.20;99.90;;;;;;5025377;28;20281;-46
2023/03/08 00:39:51;;;;;;;22.50;13.13;;;5.20;99.90;;;;;;5034107;28;20632;-46
2023/03/08 00:42:20;;;;;;;18.47;11.47;;;5.20;99.90;;;;;;5021778;28;20293;-47
2023/03/08 00:44:47;;;;;;;17.37;11.40;;;5.20;99.90;;;;;;5015626;28;20204;-48
2023/03/08 00:47:14;;;;;;;19.93;12.40;;;5.30;99.90;;;;;;5033356;28;20228;-46
2023/03/08 00:49:41;;;;;;;19.03;15.70;;;5.30;99.90;;;;;;5033945;28;20199;-49
2023/03/08 00:52:09;;;;;;;20.37;13.00;;;5.20;99.90;;;;;;5021623;28;20272;-47
2023/03/08 00:54:36;;;;;;;22.83;13.30;;;5.10;99.90;;;;;;5021590;28;20254;-47
2023/03/08 00:57:03;;;;;;;17.43;11.73;;;5.10;99.90;;;;;;5019432;28;20696;-48
2023/03/08 00:59:31;;;;;;;19.57;13.20;;;5.20;99.90;;;;;;5026496;28;20339;-47
2023/03/08 01:01:58;;;;;;;21.77;17.30;;;5.10;99.90;;;;;;5012074;28;20202;-49
2023/03/08 01:04:25;;;;;;;23.53;17.63;;;5.10;99.90;;;;;;5021636;28;20674;-46
2023/03/08 01:06:52;;;;;;;16.53;12.97;;;5.10;99.90;;;;;;5031228;28;20228;-45
2023/03/08 01:09:19;;;;;;;23.97;14.60;;;5.00;99.90;;;;;;5011661;28;20261;-48
2023/03/08 01:11:46;;;;;;;21.70;13.60;;;5.00;99.90;;;;;;5013352;28;20208;-46
2023/03/08 01:14:13;;;;;;;22.23;14.40;;;5.00;99.90;;;;;;5017950;28;20558;-48
2023/03/08 01:16:42;;;;;;;27.50;18.43;;;4.90;99.90;;;;;;5023371;28;20232;-47
2023/03/08 01:19:10;;;;;;;29.40;21.53;;;4.90;99.90;;;;;;5019731;28;20298;-46
2023/03/08 01:21:37;;;;;;;26.40;17.57;;;4.80;99.90;;;;;;5020459;28;20254;-48
2023/03/08 01:24:05;;;;;;;20.83;12.47;;;4.80;99.90;;;;;;5018115;28;20622;-48
2023/03/08 01:26:32;;;;;;;22.20;14.30;;;4.80;99.90;;;;;;5021029;28;20216;-47
2023/03/08 01:28:59;;;;;;;28.47;19.80;;;4.80;99.90;;;;;;4993512;28;20217;-47
2023/03/08 01:31:28;;;;;;;26.40;15.27;;;4.70;99.90;;;;;;4993677;28;20217;-46
2023/03/08 01:33:58;;;;;;;19.30;13.40;;;4.70;99.90;;;;;;5017972;28;20698;-47
2023/03/08 01:36:26;;;;;;;18.90;14.67;;;4.70;99.90;;;;;;5027847;28;20220;-46
2023/03/08 01:38:53;;;;;;;23.47;16.73;;;4.70;99.90;;;;;;5022518;28;20208;-48
2023/03/08 01:41:23;;;;;;;21.77;11.70;;;4.60;99.90;;;;;;5022587;28;20208;-49
2023/03/08 01:43:50;;;;;;;22.53;13.27;;;4.60;99.90;;;;;;5024440;28;20212;-48
2023/03/08 01:46:24;;;;;;;21.83;14.30;;;4.50;99.90;;;;;;5023891;28;20224;-47
2023/03/08 01:48:54;;;;;;;20.13;14.57;;;4.50;99.90;;;;;;5022677;28;20638;-47
2023/03/08 01:51:30;;;;;;;23.37;13.10;;;4.40;99.90;;;;;;5023795;28;20258;-47
2023/03/08 01:54:00;;;;;;;18.40;13.27;;;4.30;99.90;;;;;;5024013;28;20749;-48
2023/03/08 01:56:27;;;;;;;14.90;10.43;;;4.30;99.90;;;;;;5032400;28;20230;-47
2023/03/08 01:58:57;;;;;;;18.50;12.47;;;4.20;99.90;;;;;;5010230;28;20215;-47
2023/03/08 02:01:24;;;;;;;20.03;12.50;;;4.20;99.90;;;;;;5012551;28;20633;-47
2023/03/08 02:03:52;;;;;;;18.30;11.43;;;4.10;99.90;;;;;;5009630;28;20196;-46
2023/03/08 02:06:20;;;;;;;18.67;14.60;;;4.10;99.90;;;;;;5022729;28;20225;-47
2023/03/08 02:08:49;;;;;;;14.90;12.00;;;4.10;99.90;;;;;;5020226;28;20284;-47
2023/03/08 02:11:17;;;;;;;16.70;11.43;;;4.10;99.90;;;;;;5017127;28;20246;-47
2023/03/08 02:13:45;;;;;;;20.93;12.30;;;4.00;99.90;;;;;;5013159;28;20208;-48
2023/03/08 02:16:15;;;;;;;22.17;12.90;;;3.90;99.90;;;;;;5020053;28;20570;-48
2023/03/08 02:18:53;;;;;;;22.60;11.90;;;3.80;99.90;;;;;;5011817;28;20209;-46
2023/03/08 02:21:20;;;;;;;20.30;11.60;;;3.80;99.90;;;;;;5014272;28;20635;-46
2023/03/08 02:23:48;;;;;;;20.97;10.80;;;3.70;99.90;;;;;;5012071;28;20752;-48
2023/03/08 02:26:16;;;;;;;17.73;11.10;;;3.70;99.90;;;;;;5017523;28;20813;-46
2023/03/08 02:28:44;;;;;;;19.47;11.47;;;3.60;99.90;;;;;;5012241;28;20631;-47
2023/03/08 02:31:11;;;;;;;17.27;12.10;;;3.60;99.90;;;;;;5016331;28;20199;-47
2023/03/08 02:33:38;;;;;;;19.17;12.13;;;3.60;99.90;;;;;;5013131;28;20210;-46
2023/03/08 02:36:08;;;;;;;18.00;12.50;;;3.60;99.90;;;;;;5021337;28;20290;-47
2023/03/08 02:38:35;;;;;;;20.40;12.53;;;3.60;99.90;;;;;;5028758;28;20593;-48
2023/03/08 02:41:04;;;;;;;22.07;12.77;;;3.60;99.90;;;;;;5031892;28;20199;-48
2023/03/08 02:43:31;;;;;;;21.23;11.93;;;3.60;99.90;;;;;;5031747;28;20677;-48
2023/03/08 02:45:58;;;;;;;22.93;12.63;;;3.60;99.90;;;;;;5023804;28;20620;-46
2023/03/08 02:48:25;;;;;;;21.47;13.03;;;3.50;99.90;;;;;;5016070;28;20257;-48
2023/03/08 02:50:52;;;;;;;20.13;12.03;;;3.40;99.90;;;;;;5012642;28;20197;-47
2023/03/08 02:53:19;;;;;;;20.37;12.33;;;3.40;99.90;;;;;;5017251;28;20212;-49
2023/03/08 02:55:46;;;;;;;19.90;11.77;;;3.40;99.90;;;;;;5020684;28;20274;-48
2023/03/08 02:58:14;;;;;;;15.60;9.83;;;3.30;99.90;;;;;;5023336;28;20223;-46
2023/03/08 03:00:41;;;;;;;22.87;13.07;;;3.30;99.90;;;;;;5019125;28;20271;-47
2023/03/08 03:03:08;;;;;;;21.03;14.40;;;3.30;99.90;;;;;;5018377;28;20251;-46
2023/03/08 03:05:40;;;;;;;20.77;13.57;;;3.30;99.90;;;;;;5020042;28;20651;-45
2023/03/08 03:08:07;;;;;;;18.70;11.93;;;3.30;99.90;;;;;;5011890;28;20254;-47
2023/03/08 03:10:35;;;;;;;23.30;13.53;;;3.30;99.90;;;;;;5010253;28;20212;-46
2023/03/08 03:13:02;;;;;;;18.77;12.40;;;3.30;99.90;;;;;;5008783;28;20261;-47
2023/03/08 03:15:31;;;;;;;21.33;13.20;;;3.30;99.90;;;;;;5019241;28;20253;-46
2023/03/08 03:17:58;;;;;;;20.17;11.33;;;3.30;99.90;;;;;;5023273;28;20279;-48
2023/03/08 03:20:26;;;;;;;18.80;12.23;;;3.30;99.90;;;;;;5020796;28;20721;-49
2023/03/08 03:22:53;;;;;;;21.07;12.57;;;3.30;99.90;;;;;;5022462;28;20212;-47
2023/03/08 03:25:20;;;;;;;21.93;13.90;;;3.30;99.90;;;;;;5022607;28;20270;-48
2023/03/08 03:27:50;;;;;;;24.73;14.47;;;3.40;99.90;;;;;;5019891;28;20221;-47
2023/03/08 03:30:18;;;;;;;18.83;13.13;;;3.40;99.90;;;;;;5016917;28;20201;-47
2023/03/08 03:32:50;;;;;;;20.10;11.93;;;3.40;99.90;;;;;;5026996;28;20630;-46
2023/03/08 03:35:17;;;;;;;20.83;13.60;;;3.40;99.90;;;;;;5031156;28;20204;-47
2023/03/08 03:37:44;;;;;;;18.73;12.43;;;3.50;99.90;;;;;;5013717;28;20220;-47
2023/03/08 03:40:13;;;;;;;20.50;12.43;;;3.40;99.90;;;;;;5020305;28;20204;-47
2023/03/08 03:42:40;;;;;;;22.67;13.87;;;3.40;99.90;;;;;;5025085;28;20301;-48
2023/03/08 03:45:08;;;;;;;22.97;14.00;;;3.40;99.90;;;;;;5019786;28;20244;-48
2023/03/08 03:47:35;;;;;;;21.17;14.83;;;3.40;99.90;;;;;;5014980;28;20225;-47
2023/03/08 03:50:03;;;;;;;19.60;13.13;;;3.40;99.90;;;;;;5032109;28;20204;-46
2023/03/08 03:52:31;;;;;;;22.47;12.63;;;3.40;99.90;;;;;;5049365;22;20207;-50
2023/03/08 03:54:58;;;;;;;25.40;13.93;;;3.40;99.90;;;;;;5042871;28;20219;-48
2023/03/08 03:57:25;;;;;;;20.10;13.80;;;3.50;99.90;;;;;;5048714;28;20273;-48
2023/03/08 03:59:52;;;;;;;23.53;13.33;;;3.50;99.90;;;;;;5053872;28;20214;-48
2023/03/08 04:02:19;;;;;;;21.13;14.53;;;3.60;99.90;;;;;;5053296;28;20358;-47
2023/03/08 04:04:50;;;;;;;23.50;15.00;;;3.50;99.90;;;;;;5052166;28;20286;-48
2023/03/08 04:07:18;;;;;;;25.47;14.07;;;3.40;99.90;;;;;;5052958;28;20311;-48
2023/03/08 04:09:46;;;;;;;20.87;13.70;;;3.30;99.90;;;;;;5053565;28;20195;-48
2023/03/08 04:12:13;;;;;;;23.90;13.50;;;3.30;99.90;;;;;;5052119;28;20604;-48
2023/03/08 04:14:40;;;;;;;21.97;13.70;;;3.30;99.90;;;;;;5053022;28;20841;-48
2023/03/08 04:17:07;;;;;;;19.43;13.47;;;3.20;99.90;;;;;;5051724;28;20689;-48
2023/03/08 04:19:35;;;;;;;18.73;12.30;;;3.30;99.90;;;;;;5053336;28;20253;-48
2023/03/08 04:22:02;;;;;;;19.37;12.73;;;3.20;99.90;;;;;;5053527;28;20207;-48
2023/03/08 04:24:30;;;;;;;24.87;14.53;;;3.20;99.90;;;;;;5052419;28;20720;-48
2023/03/08 04:26:57;;;;;;;25.73;14.40;;;3.20;99.90;;;;;;5053302;28;20742;-48
2023/03/08 04:29:24;;;;;;;20.27;12.83;;;3.20;99.90;;;;;;5050300;28;20207;-48
2023/03/08 04:31:51;;;;;;;20.10;12.90;;;3.20;99.90;;;;;;5052205;28;20658;-48
2023/03/08 04:34:18;;;;;;;25.50;14.97;;;3.10;99.90;;;;;;5049241;28;20223;-48
2023/03/08 04:36:45;;;;;;;21.87;14.00;;;3.10;99.90;;;;;;5051157;28;20615;-49
2023/03/08 04:39:12;;;;;;;20.70;13.93;;;3.10;99.90;;;;;;5053229;28;20257;-47
2023/03/08 04:41:40;;;;;;;22.70;13.30;;;3.20;99.90;;;;;;5049630;28;20269;-48
2023/03/08 04:44:08;;;;;;;26.40;14.70;;;3.10;99.90;;;;;;5052566;28;20249;-48
2023/03/08 04:46:35;;;;;;;24.97;14.77;;;3.10;99.90;;;;;;5052007;28;20203;-48
2023/03/08 04:49:02;;;;;;;25.63;14.50;;;3.20;99.90;;;;;;5052965;28;20261;-48
2023/03/08 04:51:29;;;;;;;21.07;13.33;;;3.20;99.90;;;;;;5053012;28;20202;-48
2023/03/08 04:53:56;;;;;;;23.80;14.90;;;3.30;99.90;;;;;;5049522;28;20232;-48
2023/03/08 04:56:23;;;;;;;19.50;13.33;;;3.30;99.90;;;;;;5045108;28;20203;-48
2023/03/08 04:58:51;;;;;;;21.87;15.03;;;3.30;99.90;;;;;;5052626;28;20218;-50
2023/03/08 05:01:21;;;;;;;26.03;15.30;;;3.40;99.90;;;;;;5051600;28;20680;-48
2023/03/08 05:03:48;;;;;;;20.47;14.60;;;3.40;99.90;;;;;;5052569;28;20223;-48
2023/03/08 05:06:15;;;;;;;23.47;16.77;;;3.40;99.90;;;;;;5050952;28;20223;-48
2023/03/08 05:08:42;;;;;;;20.97;17.30;;;3.40;99.90;;;;;;5052059;28;20550;-48
2023/03/08 05:11:10;;;;;;;23.67;15.00;;;3.40;99.90;;;;;;5052543;28;20672;-48
2023/03/08 05:13:38;;;;;;;22.93;14.10;;;3.50;99.90;;;;;;5043103;28;20223;-48
2023/03/08 05:16:08;;;;;;;23.30;14.07;;;3.50;99.90;;;;;;5047800;28;20212;-48
2023/03/08 05:18:35;;;;;;;26.17;15.50;;;3.50;99.90;;;;;;5041147;28;20227;-48
2023/03/08 05:21:04;;;;;;;24.43;14.33;;;3.50;99.90;;;;;;5052436;28;20206;-48
2023/03/08 05:23:32;;;;;;;25.23;13.93;;;3.50;99.90;;;;;;5051130;28;20277;-47
2023/03/08 05:26:01;;;;;;;20.17;14.70;;;3.50;99.90;;;;;;5043036;28;20253;-47
2023/03/08 05:28:29;;;;;;;25.57;16.07;;;3.50;99.90;;;;;;5049820;28;20657;-48
2023/03/08 05:31:01;;;;;;;22.43;13.77;;;3.50;99.90;;;;;;5041596;28;20580;-48
2023/03/08 05:33:30;;;;;;;24.50;15.57;;;3.60;99.90;;;;;;5050701;28;20276;-48
2023/03/08 05:35:57;;;;;;;21.80;14.70;;;3.60;99.90;;;;;;5051430;28;20254;-48
2023/03/08 05:38:24;;;;;;;26.30;14.87;;;3.70;99.90;;;;;;5047768;28;20575;-48
2023/03/08 05:40:52;;;;;;;29.80;14.23;;;4.00;99.90;;;;;;5043795;28;20321;-48
2023/03/08 05:43:19;;;;;;;28.57;15.27;;;3.90;99.90;;;;;;5051304;28;20230;-48
2023/03/08 05:45:55;;;;;;;28.40;14.50;;;3.90;99.90;;;;;;5051249;28;20196;-48
2023/03/08 05:48:22;;;;;;;23.37;14.50;;;3.90;99.90;;;;;;5051628;28;20760;-48
2023/03/08 05:50:52;;;;;;;25.07;15.23;;;4.00;99.90;;;;;;5048383;28;20201;-48
2023/03/08 05:53:19;;;;;;;23.60;14.53;;;4.00;99.90;;;;;;5044592;28;20731;-48
2023/03/08 05:55:46;;;;;;;26.53;15.33;;;4.00;99.90;;;;;;5051262;28;20630;-48
2023/03/08 05:58:13;;;;;;;27.77;15.77;;;4.00;99.90;;;;;;5051423;28;20767;-48
2023/03/08 06:00:40;;;;;;;28.60;16.00;;;4.00;99.90;;;;;;5051025;28;20281;-48
2023/03/08 06:03:07;;;;;;;26.03;14.67;;;4.00;99.90;;;;;;5051529;28;20219;-48
2023/03/08 06:05:34;;;;;;;24.67;14.00;;;4.00;99.90;;;;;;5048654;28;20205;-48
2023/03/08 06:08:02;;;;;;;22.70;15.30;;;4.10;99.90;;;;;;5046307;28;20671;-49
2023/03/08 06:10:30;;;;;;;24.37;14.90;;;4.20;99.90;;;;;;5051456;28;20195;-48
2023/03/08 06:12:57;;;;;;;24.80;15.50;;;4.20;99.90;;;;;;5050214;28;20273;-48
2023/03/08 06:15:24;;;;;;;30.80;17.37;;;4.20;99.90;;;;;;5049027;28;20692;-48
2023/03/08 06:17:53;;;;;;;25.97;17.73;;;4.30;99.90;;;;;;5048473;28;20219;-48
2023/03/08 06:20:20;;;;;;;22.10;14.77;;;4.40;99.90;;;;;;5046167;28;20231;-48
2023/03/08 06:22:51;;;;;;;28.07;15.53;;;4.40;99.90;;;;;;5051426;28;20292;-48
2023/03/08 06:25:19;;;;;;;25.73;15.47;;;4.50;99.90;;;;;;5044067;28;20203;-47
2023/03/08 06:27:50;;;;;;;26.27;14.17;;;4.50;99.90;;;;;;5049857;28;20200;-48
2023/03/08 06:30:18;;;;;;;25.70;14.27;;;4.50;99.90;;;;;;5049415;28;20227;-48
2023/03/08 06:32:45;;;;;;;25.63;15.30;;;4.50;99.90;;;;;;5051028;28;20277;-48
2023/03/08 06:35:12;;;;;;;29.47;15.77;;;4.50;99.90;;;;;;5044425;28;20226;-48
2023/03/08 06:37:39;;;;;;;26.03;15.50;;;4.50;99.90;;;;;;5048559;28;20225;-48
2023/03/08 06:40:08;;;;;;;28.57;14.90;;;4.50;99.90;;;;;;5051222;28;20202;-48
2023/03/08 06:42:36;;;;;;;26.73;16.07;;;4.50;99.90;;;;;;5051108;28;20213;-48
2023/03/08 06:45:03;;;;;;;27.70;15.77;;;4.60;99.90;;;;;;5047875;28;20697;-48
2023/03/08 06:47:30;;;;;;;29.30;16.87;;;4.60;99.90;;;;;;5050728;28;20208;-48
2023/03/08 06:49:57;;;;;;;27.07;15.50;;;4.70;99.90;;;;;;5051381;28;20207;-48
2023/03/08 06:52:24;;;;;;;23.20;15.57;;;4.80;99.90;;;;;;5049681;28;20201;-47
2023/03/08 06:54:51;;;;;;;25.43;14.93;;;4.80;99.90;;;;;;5045940;28;20195;-48
2023/03/08 06:57:18;;;;;;;30.33;15.27;;;4.80;99.90;;;;;;5046859;28;20261;-48
2023/03/08 06:59:47;;;;;;;24.27;14.90;;;4.80;99.90;;;;;;5050712;28;20224;-48
2023/03/08 07:02:13;;;;;;;23.07;15.50;;;4.80;99.90;;;;;;5049583;28;20195;-48
2023/03/08 07:04:40;;;;;;;27.80;16.77;;;4.80;99.90;;;;;;5046777;28;20219;-48
2023/03/08 07:07:07;;;;;;;24.67;14.97;;;4.80;99.90;;;;;;5052947;28;20293;-48
2023/03/08 07:09:34;;;;;;;25.93;14.73;;;4.80;99.90;;;;;;5054652;28;20223;-48
2023/03/08 07:12:02;;;;;;;24.83;15.70;;;5.00;99.90;;;;;;5054678;28;20677;-49
2023/03/08 07:14:29;;;;;;;24.93;15.40;;;5.30;99.90;;;;;;5053903;28;20220;-48
2023/03/08 07:16:57;;;;;;;25.10;14.70;;;5.40;99.90;;;;;;5054284;28;20196;-48
2023/03/08 07:19:25;;;;;;;24.23;15.90;;;5.70;99.90;;;;;;5046750;28;20228;-48
2023/03/08 07:21:53;;;;;;;31.08;17.65;;;5.70;99.90;;;;;;5046566;28;20467;-47
2023/03/08 07:24:20;;;;;;;27.40;17.03;;;5.80;99.90;;;;;;5050608;28;20646;-48
2023/03/08 07:26:47;;;;;;;24.93;15.07;;;5.80;99.90;;;;;;5051298;28;20223;-48
2023/03/08 07:29:15;;;;;;;28.47;16.10;;;5.70;99.90;;;;;;5050907;28;20246;-48
2023/03/08 07:31:43;;;;;;;29.23;17.37;;;5.70;99.90;;;;;;5052509;28;20553;-48
2023/03/08 07:34:12;;;;;;;24.63;15.90;;;5.80;99.90;;;;;;5051758;28;20247;-48
2023/03/08 07:36:40;;;;;;;26.70;15.87;;;5.80;99.90;;;;;;5053926;28;20197;-48
2023/03/08 07:39:07;;;;;;;23.37;14.90;;;5.80;99.90;;;;;;5052424;28;20239;-48
2023/03/08 07:41:35;;;;;;;24.73;13.70;;;5.80;99.90;;;;;;5037432;28;20213;-48
2023/03/08 07:44:02;;;;;;;27.90;16.00;;;5.90;99.90;;;;;;5053724;28;20724;-48
2023/03/08 07:46:29;;;;;;;21.53;14.33;;;6.10;99.90;;;;;;5054045;28;20583;-48
2023/03/08 07:48:56;;;;;;;24.90;15.73;;;6.30;99.90;;;;;;5052976;28;20247;-48
2023/03/08 07:51:25;;;;;;;25.77;16.07;;;6.40;99.90;;;;;;5053196;28;20252;-48
2023/03/08 07:53:52;;;;;;;27.47;15.30;;;6.50;99.90;;;;;;5052935;28;20235;-48
2023/03/08 07:56:19;;;;;;;23.83;14.47;;;6.50;99.90;;;;;;5053156;28;20288;-48
2023/03/08 07:58:46;;;;;;;24.20;15.67;;;6.50;99.90;;;;;;5053941;28;20282;-48
2023/03/08 08:01:14;;;;;;;23.27;14.50;;;6.60;99.90;;;;;;5054514;28;20205;-48
2023/03/08 08:03:41;;;;;;;21.97;14.80;;;6.70;99.90;;;;;;5051019;28;20594;-48
2023/03/08 08:06:09;;;;;;;24.03;16.00;;;6.80;99.90;;;;;;5033467;28;20204;-48
2023/03/08 08:08:37;;;;;;;25.90;15.57;;;6.70;99.90;;;;;;5033548;28;20250;-48
2023/03/08 08:11:10;;;;;;;22.87;13.83;;;6.60;99.90;;;;;;5033577;28;20217;-47
2023/03/08 08:13:37;;;;;;;26.50;15.63;;;6.50;99.90;;;;;;5052904;28;20247;-48
2023/03/08 08:16:06;;;;;;;22.27;14.07;;;6.50;99.90;;;;;;5053051;28;20682;-47
2023/03/08 08:18:33;;;;;;;31.97;16.57;;;6.50;99.90;;;;;;5053361;28;20772;-48
2023/03/08 08:21:01;;;;;;;22.03;13.87;;;6.60;99.90;;;;;;5053515;28;20531;-48
2023/03/08 08:23:29;;;;;;;23.40;15.07;;;6.60;99.90;;;;;;5053053;28;20787;-48
2023/03/08 08:25:57;;;;;;;26.17;14.90;;;6.80;99.90;;;;;;5053298;28;20621;-48
2023/03/08 08:28:26;;;;;;;20.40;13.80;;;6.80;99.90;;;;;;5053171;28;20258;-48
2023/03/08 08:30:57;;;;;;;25.90;13.97;;;6.80;99.90;;;;;;5053162;28;20281;-47
2023/03/08 08:33:24;;;;;;;20.30;13.67;;;6.80;99.90;;;;;;5053065;28;20266;-48
2023/03/08 08:35:51;;;;;;;20.33;14.00;;;6.90;99.90;;;;;;5050566;28;20343;-47
2023/03/08 08:38:18;;;;;;;19.00;13.00;;;7.00;99.90;;;;;;5045653;28;20366;-48
2023/03/08 08:40:45;;;;;;;20.20;12.63;;;6.90;99.90;;;;;;5051679;28;20200;-48
2023/03/08 08:43:14;;;;;;;21.17;14.20;;;7.00;99.90;;;;;;5049248;28;20254;-48
2023/03/08 08:45:44;;;;;;;19.00;13.73;;;7.10;99.90;;;;;;5050064;28;20202;-47
2023/03/08 08:48:11;;;;;;;25.67;12.83;;;7.20;99.90;;;;;;5050150;28;20235;-48
2023/03/08 08:50:38;;;;;;;19.37;12.00;;;7.30;99.90;;;;;;5051757;28;20344;-48
2023/03/08 08:53:05;;;;;;;17.60;11.10;;;7.30;99.90;;;;;;5042006;28;20285;-48
2023/03/08 08:55:32;;;;;;;16.33;10.17;;;7.20;99.90;;;;;;5052733;28;20247;-48
2023/03/08 08:58:00;;;;;;;16.13;10.90;;;7.20;99.90;;;;;;5049795;28;20199;-48
2023/03/08 09:00:28;;;;;;;16.60;10.93;;;7.00;99.90;;;;;;5046367;28;20223;-48
2023/03/08 09:02:55;;;;;;;24.70;11.17;;;7.00;99.90;;;;;;5052413;28;20265;-48
2023/03/08 09:05:22;;;;;;;18.47;11.17;;;6.90;99.90;;;;;;5052141;28;20207;-48
2023/03/08 09:07:53;;;;;;;12.30;9.87;;;6.80;99.90;;;;;;5050475;28;20251;-48
2023/03/08 09:10:20;;;;;;;15.63;12.10;;;6.90;99.90;;;;;;5052455;28;20195;-48
2023/03/08 09:12:51;;;;;;;16.33;12.00;;;6.90;99.90;;;;;;5052345;28;20707;-47
2023/03/08 09:15:18;;;;;;;16.23;11.87;;;6.80;99.90;;;;;;5065173;28;20666;-48
2023/03/08 09:17:49;;;;;;;15.10;11.43;;;6.80;99.90;;;;;;5054567;28;20208;-48
2023/03/08 09:20:17;;;;;;;16.67;11.93;;;6.80;99.90;;;;;;5052390;28;20326;-47
2023/03/08 09:22:44;;;;;;;16.73;12.03;;;6.80;99.90;;;;;;5051670;28;20309;-47
2023/03/08 09:25:12;;;;;;;16.67;12.63;;;6.90;99.90;;;;;;5052158;28;20736;-48
2023/03/08 09:27:40;;;;;;;16.07;12.13;;;6.80;99.90;;;;;;5052032;28;20234;-48
2023/03/08 09:30:11;;;;;;;13.83;11.10;;;7.00;99.90;;;;;;5051874;28;20333;-48
2023/03/08 09:32:38;;;;;;;19.50;13.23;;;7.00;99.90;;;;;;5052337;28;20204;-48
2023/03/08 09:35:07;;;;;;;16.50;12.73;;;7.00;99.90;;;;;;5052109;28;20207;-49
2023/03/08 09:37:34;;;;;;;22.27;13.33;;;7.10;99.90;;;;;;5051867;28;20288;-48
2023/03/08 09:40:08;;;;;;;16.80;11.87;;;7.10;99.90;;;;;;5051292;28;20653;-49
2023/03/08 09:42:37;;;;;;;21.63;12.30;;;7.10;99.90;;;;;;5051436;28;20282;-48
2023/03/08 09:45:17;;;;;;;20.60;11.97;;;7.20;99.90;;;;;;5050230;28;20457;-48
2023/03/08 09:47:52;;;;;;;16.17;12.27;;;7.20;99.90;;;;;;5048978;28;20213;-48
2023/03/08 09:50:37;;;;;;;16.70;12.57;;;7.20;99.90;;;;;;5048013;28;20199;-48
2023/03/08 09:53:10;;;;;;;34.60;18.03;;;7.00;99.90;;;;;;5065942;22;20204;-46
2023/03/08 09:55:45;;;;;;;29.67;18.47;;;7.00;99.90;;;;;;5046221;28;20256;-47
2023/03/08 09:58:21;;;;;;;24.50;14.57;;;7.00;99.90;;;;;;5050102;28;20257;-46
2023/03/08 10:00:48;;;;;;;20.57;12.47;;;7.00;99.90;;;;;;5050743;28;20228;-47
2023/03/08 10:03:37;;;;;;;23.07;13.67;;;7.00;99.90;;;;;;5050233;28;20216;-46
2023/03/08 10:06:14;;;;;;;20.37;14.40;;;7.00;99.90;;;;;;5053925;28;20253;-46
2023/03/08 10:08:48;;;;;;;19.10;11.90;;;7.00;99.90;;;;;;5051216;28;20260;-47
2023/03/08 10:11:21;;;;;;;21.30;13.23;;;7.10;99.90;;;;;;5051823;28;20298;-49
2023/03/08 10:13:50;;;;;;;19.27;12.27;;;7.10;99.90;;;;;;5051958;28;20718;-47
2023/03/08 10:16:21;;;;;;;25.80;17.33;;;7.10;99.90;;;;;;5051976;28;20200;-47
2023/03/08 10:18:52;;;;;;;18.90;13.70;;;7.00;99.90;;;;;;5051417;28;20202;-48
2023/03/08 10:21:22;;;;;;;22.30;13.93;;;7.10;99.90;;;;;;5051928;28;20277;-48
2023/03/08 10:23:59;;;;;;;19.90;12.83;;;7.00;99.90;;;;;;5051646;28;20219;-48
2023/03/08 10:26:27;;;;;;;19.37;12.73;;;7.00;99.90;;;;;;5048896;28;20203;-45
2023/03/08 10:28:54;;;;;;;19.67;12.50;;;7.00;99.90;;;;;;5048058;28;20550;-48
2023/03/08 10:31:24;;;;;;;22.70;15.67;;;7.10;99.90;;;;;;5051580;28;20253;-46
2023/03/08 10:33:57;;;;;;;24.23;14.27;;;7.10;99.90;;;;;;5051342;28;20711;-48
2023/03/08 10:36:26;;;;;;;24.07;14.20;;;7.10;99.90;;;;;;5048940;28;20207;-48
2023/03/08 10:39:04;;;;;;;22.77;14.23;;;7.10;99.90;;;;;;5047753;28;20210;-47
2023/03/08 10:41:36;;;;;;;20.80;13.80;;;7.20;99.90;;;;;;5048205;28;20203;-48
2023/03/08 10:44:03;;;;;;;18.03;12.77;;;7.20;99.90;;;;;;5051658;28;20227;-46
2023/03/08 10:46:31;;;;;;;23.87;16.63;;;7.20;99.90;;;;;;5051343;28;20631;-47
2023/03/08 10:49:09;;;;;;;24.97;14.77;;;7.30;99.90;;;;;;5050795;28;20206;-48
2023/03/08 10:51:37;;;;;;;22.27;15.53;;;7.30;99.90;;;;;;5051743;28;20624;-48
2023/03/08 10:54:06;;;;;;;23.63;13.77;;;7.40;99.90;;;;;;5051443;28;20279;-46
2023/03/08 10:56:37;;;;;;;20.77;14.73;;;7.60;99.90;;;;;;5051479;28;20294;-47
2023/03/08 10:59:07;;;;;;;27.33;16.93;;;7.50;99.90;;;;;;5046204;28;20219;-47
2023/03/08 11:01:35;;;;;;;28.27;16.60;;;7.60;99.90;;;;;;5047521;28;20204;-48
2023/03/08 11:04:04;;;;;;;24.23;16.53;;;7.60;99.90;;;;;;5050080;28;20224;-48
2023/03/08 11:06:31;;;;;;;22.20;15.70;;;7.60;99.90;;;;;;5051394;28;20198;-47
2023/03/08 11:09:02;;;;;;;24.33;15.13;;;7.50;99.90;;;;;;5050797;28;20257;-47
2023/03/08 11:11:40;;;;;;;23.23;15.00;;;7.60;99.90;;;;;;5051305;28;20203;-47
2023/03/08 11:14:10;;;;;;;25.47;15.83;;;7.50;99.90;;;;;;5051261;28;20224;-48
2023/03/08 11:16:50;;;;;;;21.73;15.07;;;7.60;99.90;;;;;;5051542;28;20199;-48
2023/03/08 11:19:32;;;;;;;24.47;14.00;;;7.60;99.90;;;;;;5050466;28;20216;-48
2023/03/08 11:22:16;;;;;;;25.67;14.73;;;7.50;99.90;;;;;;5044452;28;20592;-47
2023/03/08 11:25:01;;;;;;;20.23;13.50;;;7.60;99.90;;;;;;5051113;28;20671;-47
2023/03/08 11:27:44;;;;;;;25.10;16.33;;;7.60;99.90;;;;;;5051352;28;20206;-46
2023/03/08 11:30:24;;;;;;;23.90;14.93;;;7.50;99.90;;;;;;5042289;28;20720;-48
2023/03/08 11:33:04;;;;;;;23.07;18.80;;;7.50;99.90;;;;;;5051038;28;20204;-47
2023/03/08 11:35:37;;;;;;;27.10;19.77;;;7.50;99.90;;;;;;5051061;28;20203;-47
2023/03/08 11:38:13;;;;;;;30.57;21.90;;;7.50;99.90;;;;;;5050414;28;20677;-47
2023/03/08 11:40:54;;;;;;;26.30;19.53;;;7.50;99.90;;;;;;5051044;28;20286;-48
2023/03/08 11:43:41;;;;;;;22.97;15.83;;;7.60;99.90;;;;;;5056252;28;20633;-48
2023/03/08 11:46:15;;;;;;;23.97;16.30;;;7.60;99.90;;;;;;5064483;28;20216;-46
2023/03/08 11:49:05;;;;;;;17.37;13.43;;;7.70;99.90;;;;;;5049636;28;20677;-46
2023/03/08 11:51:37;;;;;;;17.67;12.57;;;7.70;99.90;;;;;;5049488;28;20196;-47
2023/03/08 11:54:15;;;;;;;20.93;10.80;;;7.70;99.90;;;;;;5048682;28;20778;-46
2023/03/08 11:56:51;;;;;;;19.30;10.53;;;7.90;99.90;;;;;;5053274;28;20253;-47
2023/03/08 11:59:29;;;;;;;16.23;9.60;;;8.00;99.90;;;;;;5053803;28;20280;-48
2023/03/08 12:02:02;;;;;;;14.53;8.80;;;8.10;99.90;;;;;;5053068;28;20888;-47
2023/03/08 12:04:35;;;;;;;8.47;7.40;;;8.30;99.90;;;;;;5051856;28;20252;-46
2023/03/08 12:07:06;;;;;;;18.13;8.47;;;8.40;99.90;;;;;;5054358;28;20218;-47
2023/03/08 12:09:37;;;;;;;10.30;5.80;;;8.40;99.90;;;;;;5052264;28;20730;-47
2023/03/08 12:12:10;;;;;;;7.80;4.70;;;8.50;99.90;;;;;;5054280;28;20194;-48
2023/03/08 12:14:46;;;;;;;7.20;5.93;;;8.70;99.90;;;;;;5049829;28;20643;-46
2023/03/08 12:17:20;;;;;;;7.17;6.10;;;8.70;99.90;;;;;;5053087;28;20200;-47
2023/03/08 12:19:49;;;;;;;11.40;6.07;;;8.80;99.90;;;;;;5050204;28;20271;-47
2023/03/08 12:22:29;;;;;;;7.73;5.57;;;8.90;99.90;;;;;;5054162;28;20206;-47
2023/03/08 12:25:04;;;;;;;6.30;5.50;;;9.10;99.90;;;;;;5051833;28;20709;-48
2023/03/08 12:27:40;;;;;;;5.70;5.03;;;9.10;99.90;;;;;;5053998;28;20208;-47
2023/03/08 12:30:18;;;;;;;3.97;3.40;;;9.20;99.90;;;;;;5053417;28;20191;-46
2023/03/08 12:32:49;;;;;;;3.90;3.53;;;9.40;99.90;;;;;;5053821;28;20203;-48
2023/03/08 12:35:29;;;;;;;5.43;4.57;;;9.60;99.90;;;;;;5052902;28;20231;-49
2023/03/08 12:37:57;;;;;;;7.97;4.00;;;9.70;99.90;;;;;;5053992;28;20195;-47
2023/03/08 12:40:34;;;;;;;7.03;4.83;;;9.80;99.90;;;;;;5044825;28;20218;-47
2023/03/08 12:43:09;;;;;;;6.77;3.87;;;9.90;99.90;;;;;;5033782;28;20277;-46
2023/03/08 12:45:36;;;;;;;5.80;4.87;;;10.10;99.90;;;;;;5045516;28;20257;-47
2023/03/08 12:48:20;;;;;;;6.63;3.47;;;10.10;99.90;;;;;;5053481;28;20727;-48